Time;durP1;ratioP1;P1;durP2;ratioP2;P2;SDS_P1;SDS_P2;PMS_P1;PMS_P2;Temp;Humidity;BMP_temperature;BMP_pressure;BME280_temperature;BME280_humidity;BME280_pressure;Samples;Min_cycle;Max_cycle;Signal;HPM_P1;HPM_P2
2022/05/13 00:01:44;;;;;;;23.15;4.43;;;13.50;99.90;;;;;;5056015;28;20029;-65
2022/05/13 00:04:11;;;;;;;25.67;3.92;;;13.50;99.90;;;;;;5055532;28;20027;-65
2022/05/13 00:06:36;;;;;;;22.77;4.00;;;13.50;99.90;;;;;;5054551;28;20021;-65
2022/05/13 00:09:03;;;;;;;22.67;3.65;;;13.40;99.90;;;;;;5054547;28;20025;-63
2022/05/13 00:11:29;;;;;;;23.70;4.50;;;13.50;99.90;;;;;;5054777;28;20564;-63
2022/05/13 00:13:55;;;;;;;20.40;3.45;;;13.50;99.90;;;;;;5057329;28;20056;-62
2022/05/13 00:16:21;;;;;;;26.42;4.35;;;13.40;99.90;;;;;;5073932;28;20038;-62
2022/05/13 00:18:46;;;;;;;19.92;3.30;;;13.50;99.90;;;;;;5073347;28;20028;-63
2022/05/13 00:21:12;;;;;;;20.20;3.30;;;13.50;99.90;;;;;;5075213;28;20441;-63
2022/05/13 00:23:38;;;;;;;20.88;4.25;;;13.50;99.90;;;;;;5059969;28;20021;-62
2022/05/13 00:26:03;;;;;;;24.65;3.63;;;13.40;99.90;;;;;;5054144;28;20021;-61
2022/05/13 00:28:29;;;;;;;22.35;3.58;;;13.50;99.90;;;;;;5055267;28;20357;-62
2022/05/13 00:30:55;;;;;;;25.35;3.92;;;13.50;99.90;;;;;;5054918;28;20397;-62
2022/05/13 00:33:21;;;;;;;18.02;3.45;;;13.50;99.90;;;;;;5054951;28;20108;-61
2022/05/13 00:35:48;;;;;;;23.60;3.85;;;13.50;99.90;;;;;;5055035;28;20057;-62
2022/05/13 00:38:14;;;;;;;19.33;4.05;;;13.50;99.90;;;;;;5054967;28;20013;-62
2022/05/13 00:40:41;;;;;;;19.48;3.92;;;13.50;99.90;;;;;;5054959;28;20036;-62
2022/05/13 00:43:09;;;;;;;23.10;3.90;;;13.50;99.90;;;;;;5054880;28;20376;-62
2022/05/13 00:45:35;;;;;;;24.58;4.30;;;13.50;99.90;;;;;;5055056;28;20017;-63
2022/05/13 00:48:01;;;;;;;23.98;4.50;;;13.50;99.90;;;;;;5055220;28;20416;-62
2022/05/13 00:50:30;;;;;;;23.67;3.97;;;13.50;99.90;;;;;;5055131;28;20560;-63
2022/05/13 00:52:56;;;;;;;20.73;3.60;;;13.50;99.90;;;;;;5055146;28;20083;-63
2022/05/13 00:55:28;;;;;;;22.05;4.20;;;13.50;99.90;;;;;;5054816;28;20037;-63
2022/05/13 00:57:55;;;;;;;21.75;3.92;;;13.50;99.90;;;;;;5053626;28;20025;-62
2022/05/13 01:00:21;;;;;;;24.17;4.20;;;13.50;99.90;;;;;;5055078;28;20033;-62
2022/05/13 01:02:48;;;;;;;24.00;3.95;;;13.50;99.90;;;;;;5054741;28;20350;-63
2022/05/13 01:05:16;;;;;;;20.23;3.40;;;13.50;99.90;;;;;;5054899;28;20067;-62
2022/05/13 01:07:42;;;;;;;23.02;4.43;;;13.40;99.90;;;;;;5054895;28;20025;-62
2022/05/13 01:10:16;;;;;;;22.45;4.57;;;13.50;99.90;;;;;;5053922;28;20020;-63
2022/05/13 01:12:49;;;;;;;22.73;4.10;;;13.50;99.90;;;;;;5054483;28;20057;-62
2022/05/13 01:15:19;;;;;;;19.55;3.58;;;13.50;99.90;;;;;;5054552;28;20029;-62
2022/05/13 01:20:36;;;;;;;29.58;5.03;;;13.50;99.90;;;;;;5054475;28;20078;-63
2022/05/13 01:23:09;;;;;;;23.27;4.28;;;13.50;99.90;;;;;;5054454;28;20033;-63
2022/05/13 01:25:42;;;;;;;26.05;4.72;;;13.50;99.90;;;;;;5054718;28;20024;-63
2022/05/13 01:28:13;;;;;;;15.02;3.13;;;13.50;99.90;;;;;;5054469;28;20025;-62
2022/05/13 01:30:46;;;;;;;20.65;3.88;;;13.50;99.90;;;;;;5054080;28;20120;-63
2022/05/13 01:33:13;;;;;;;26.40;5.47;;;13.60;99.90;;;;;;5053898;28;20497;-63
2022/05/13 01:35:40;;;;;;;19.45;3.72;;;13.50;99.90;;;;;;5054470;28;20087;-62
2022/05/13 01:38:07;;;;;;;22.88;3.88;;;13.50;99.90;;;;;;5054209;28;20029;-62
2022/05/13 01:40:32;;;;;;;15.75;3.45;;;13.60;99.90;;;;;;5054227;28;20380;-63
2022/05/13 01:42:58;;;;;;;24.50;4.03;;;13.60;99.90;;;;;;5053946;28;20013;-63
2022/05/13 01:45:23;;;;;;;16.70;3.53;;;13.60;99.90;;;;;;5054092;28;20025;-62
2022/05/13 01:47:49;;;;;;;18.63;3.78;;;13.70;99.90;;;;;;5054040;28;20036;-62
2022/05/13 01:50:15;;;;;;;17.60;3.60;;;13.70;99.90;;;;;;5053864;28;20036;-63
2022/05/13 01:52:41;;;;;;;18.48;3.83;;;13.70;99.90;;;;;;5054031;28;20472;-63
2022/05/13 01:55:07;;;;;;;17.30;3.50;;;13.70;99.90;;;;;;5053951;28;20179;-63
2022/05/13 01:57:32;;;;;;;18.92;4.07;;;13.70;99.90;;;;;;5053993;28;20028;-63
2022/05/13 01:59:58;;;;;;;21.27;3.97;;;13.70;99.90;;;;;;5052556;28;20117;-63
2022/05/13 02:02:23;;;;;;;16.75;3.53;;;13.60;99.90;;;;;;5053814;28;20116;-63
2022/05/13 02:04:49;;;;;;;24.65;3.53;;;13.60;99.90;;;;;;5053670;28;20021;-62
2022/05/13 02:07:14;;;;;;;18.60;3.55;;;13.50;99.90;;;;;;5054023;28;20469;-62
2022/05/13 02:09:40;;;;;;;21.77;4.50;;;13.50;99.90;;;;;;5052276;28;20461;-63
2022/05/13 02:12:06;;;;;;;20.75;3.85;;;13.40;99.90;;;;;;5053599;28;20094;-63
2022/05/13 02:14:32;;;;;;;18.38;4.18;;;13.40;99.90;;;;;;5053313;28;20033;-63
2022/05/13 02:16:58;;;;;;;17.95;4.07;;;13.40;99.90;;;;;;5052031;28;20047;-63
2022/05/13 02:19:23;;;;;;;13.75;3.08;;;13.40;99.90;;;;;;5053500;28;20028;-63
2022/05/13 02:21:49;;;;;;;21.17;3.38;;;13.40;99.90;;;;;;5052576;28;20021;-63
2022/05/13 02:24:14;;;;;;;14.13;2.70;;;13.40;99.90;;;;;;5053594;28;20025;-62
2022/05/13 02:26:40;;;;;;;13.82;2.97;;;13.40;99.90;;;;;;5053226;28;20025;-62
2022/05/13 02:29:06;;;;;;;12.32;2.78;;;13.40;99.90;;;;;;5053440;28;20055;-63
2022/05/13 02:31:31;;;;;;;11.82;2.45;;;13.40;99.90;;;;;;5053214;28;20025;-63
2022/05/13 02:33:58;;;;;;;11.57;3.17;;;13.40;99.90;;;;;;5051959;28;20112;-63
2022/05/13 02:36:24;;;;;;;10.48;2.42;;;13.40;99.90;;;;;;5053042;28;20461;-63
2022/05/13 02:38:50;;;;;;;12.55;3.25;;;13.40;99.90;;;;;;5052884;28;20481;-63
2022/05/13 02:41:15;;;;;;;9.02;2.58;;;13.40;99.90;;;;;;5051490;28;20059;-62
2022/05/13 02:43:43;;;;;;;11.77;2.60;;;13.40;99.90;;;;;;5052772;28;20021;-61
2022/05/13 02:46:10;;;;;;;14.25;2.47;;;13.40;99.90;;;;;;5052798;28;20017;-62
2022/05/13 02:48:37;;;;;;;21.85;2.90;;;13.40;99.90;;;;;;5052974;28;20021;-63
2022/05/13 02:51:03;;;;;;;9.60;2.55;;;13.30;99.90;;;;;;5052916;28;20453;-62
2022/05/13 02:53:29;;;;;;;12.50;3.00;;;13.40;99.90;;;;;;5052727;28;20074;-62
2022/05/13 02:55:55;;;;;;;10.48;2.42;;;13.40;99.90;;;;;;5052654;28;20036;-62
2022/05/13 02:58:20;;;;;;;9.43;2.63;;;13.30;99.90;;;;;;5051444;28;20017;-62
2022/05/13 03:00:46;;;;;;;11.32;2.92;;;13.30;99.90;;;;;;5052311;28;20028;-62
2022/05/13 03:03:12;;;;;;;14.98;2.65;;;13.30;99.90;;;;;;5052707;28;20499;-62
2022/05/13 03:05:38;;;;;;;7.68;1.80;;;13.30;99.90;;;;;;5052876;28;20025;-62
2022/05/13 03:08:05;;;;;;;10.82;2.78;;;13.40;99.90;;;;;;5052923;28;20044;-63
2022/05/13 03:10:33;;;;;;;11.73;3.00;;;13.40;99.90;;;;;;5052897;28;20116;-61
2022/05/13 03:12:59;;;;;;;9.50;2.30;;;13.40;99.90;;;;;;5052588;28;20424;-62
2022/05/13 03:15:26;;;;;;;15.73;2.72;;;13.40;99.90;;;;;;5052334;28;20037;-62
2022/05/13 03:17:52;;;;;;;11.88;2.33;;;13.40;99.90;;;;;;5051451;28;20021;-62
2022/05/13 03:20:19;;;;;;;13.40;2.38;;;13.40;99.90;;;;;;5052801;28;20043;-62
2022/05/13 03:22:46;;;;;;;12.10;2.55;;;13.40;99.90;;;;;;5053070;28;20121;-61
2022/05/13 03:25:13;;;;;;;14.57;2.65;;;13.40;99.90;;;;;;5052975;28;20350;-62
2022/05/13 03:27:39;;;;;;;11.05;2.28;;;13.40;99.90;;;;;;5052727;28;20028;-62
2022/05/13 03:30:06;;;;;;;11.25;2.45;;;13.50;99.90;;;;;;5052283;28;20056;-62
2022/05/13 03:32:32;;;;;;;10.40;2.53;;;13.50;99.90;;;;;;5052231;28;20203;-62
2022/05/13 03:34:58;;;;;;;15.38;3.63;;;13.50;99.90;;;;;;5052388;28;20041;-63
2022/05/13 03:37:23;;;;;;;14.32;3.50;;;13.50;99.90;;;;;;5052370;28;20404;-63
2022/05/13 03:39:49;;;;;;;13.85;2.92;;;13.50;99.90;;;;;;5052424;28;20025;-63
2022/05/13 03:42:15;;;;;;;16.42;3.22;;;13.50;99.90;;;;;;5052330;28;20017;-62
2022/05/13 03:44:42;;;;;;;15.25;3.45;;;13.50;99.90;;;;;;5052519;28;20056;-63
2022/05/13 03:47:07;;;;;;;11.75;2.50;;;13.50;99.90;;;;;;5052560;28;20059;-63
2022/05/13 03:49:33;;;;;;;15.80;3.42;;;13.50;99.90;;;;;;5051299;28;20075;-62
2022/05/13 03:51:59;;;;;;;12.55;2.70;;;13.50;99.90;;;;;;5052388;28;20040;-62
2022/05/13 03:54:24;;;;;;;12.85;2.17;;;13.50;99.90;;;;;;5052248;28;20025;-62
2022/05/13 03:56:50;;;;;;;13.93;2.88;;;13.50;99.90;;;;;;5052285;28;20047;-63
2022/05/13 03:59:15;;;;;;;12.15;2.70;;;13.50;99.90;;;;;;5052110;28;20124;-62
2022/05/13 04:01:41;;;;;;;10.77;2.60;;;13.50;99.90;;;;;;5052453;28;20414;-63
2022/05/13 04:04:07;;;;;;;17.85;2.65;;;13.50;99.90;;;;;;5052471;28;20021;-63
2022/05/13 04:09:17;;;;;;;9.48;2.20;;;13.60;99.90;;;;;;5052322;28;20031;-62
2022/05/13 04:16:04;;;;;;;9.82;2.50;;;13.60;99.90;;;;;;5051803;28;20020;-62
2022/05/13 04:17:13;;;;;;;11.13;3.35;;;13.50;99.90;;;;;;5052223;28;20079;-66
2022/05/13 04:19:39;;;;;;;12.55;2.80;;;13.60;99.90;;;;;;5052073;28;20033;-64
2022/05/13 04:22:04;;;;;;;13.48;3.50;;;13.60;99.90;;;;;;5051982;28;20029;-65
2022/05/13 04:24:30;;;;;;;12.75;2.60;;;13.60;99.90;;;;;;5051824;28;20039;-63
2022/05/13 04:26:56;;;;;;;17.67;2.78;;;13.60;99.90;;;;;;5051586;28;20025;-65
2022/05/13 04:29:21;;;;;;;13.90;2.50;;;13.70;99.90;;;;;;5051732;28;20428;-64
2022/05/13 04:31:47;;;;;;;11.73;2.40;;;13.60;99.90;;;;;;5051648;28;20372;-65
2022/05/13 04:34:13;;;;;;;13.18;2.78;;;13.70;99.90;;;;;;5052012;28;20496;-65
2022/05/13 04:36:38;;;;;;;17.70;3.83;;;13.70;99.90;;;;;;5051273;28;20021;-62
2022/05/13 04:39:05;;;;;;;12.25;2.65;;;13.70;99.90;;;;;;5051901;28;20025;-64
2022/05/13 04:44:16;;;;;;;16.48;3.50;;;13.70;99.90;;;;;;5052674;28;20134;-62
2022/05/13 04:46:41;;;;;;;12.63;2.67;;;13.80;99.90;;;;;;5055242;28;20025;-66
2022/05/13 04:49:08;;;;;;;15.25;3.30;;;13.80;99.90;;;;;;5055089;28;20398;-63
2022/05/13 04:51:34;;;;;;;21.02;3.47;;;13.90;99.90;;;;;;5055760;28;20071;-64
2022/05/13 04:54:00;;;;;;;15.73;3.50;;;13.90;99.90;;;;;;5055513;28;20556;-64
2022/05/13 04:56:28;;;;;;;14.93;3.08;;;14.00;99.90;;;;;;5055239;28;20039;-64
2022/05/13 04:58:54;;;;;;;14.45;2.85;;;14.00;99.90;;;;;;5055132;28;20472;-66
2022/05/13 05:01:21;;;;;;;18.08;4.03;;;14.10;99.90;;;;;;5055326;28;20103;-64
2022/05/13 05:03:47;;;;;;;12.23;2.42;;;14.10;99.90;;;;;;5055265;28;20025;-64
2022/05/13 05:06:14;;;;;;;10.85;3.03;;;14.10;99.90;;;;;;5055000;28;20104;-64
2022/05/13 05:08:40;;;;;;;13.32;3.00;;;14.20;99.90;;;;;;5053890;28;20064;-65
2022/05/13 05:11:07;;;;;;;12.80;3.67;;;14.20;99.90;;;;;;5054555;28;20020;-64
2022/05/13 05:13:36;;;;;;;15.30;4.75;;;14.30;99.90;;;;;;5054241;28;20021;-60
2022/05/13 05:16:02;;;;;;;13.75;3.55;;;14.30;99.90;;;;;;5054089;28;20187;-64
2022/05/13 05:18:34;;;;;;;15.40;4.28;;;14.30;99.90;;;;;;5054519;28;20457;-66
2022/05/13 05:21:00;;;;;;;18.70;3.75;;;14.30;99.90;;;;;;5054608;28;20474;-63
2022/05/13 05:23:30;;;;;;;8.63;2.60;;;14.40;99.90;;;;;;5053331;28;20434;-62
2022/05/13 05:25:56;;;;;;;14.05;3.85;;;14.50;99.90;;;;;;5054518;28;20080;-62
2022/05/13 05:28:21;;;;;;;17.58;3.70;;;14.50;99.90;;;;;;5054318;28;20017;-62
2022/05/13 05:30:48;;;;;;;12.20;3.15;;;14.50;99.90;;;;;;5052758;28;20048;-62
2022/05/13 05:33:14;;;;;;;14.80;3.63;;;14.50;99.90;;;;;;5054536;28;20024;-63
2022/05/13 05:35:40;;;;;;;16.42;3.65;;;14.60;99.90;;;;;;5054236;28;20036;-63
2022/05/13 05:38:07;;;;;;;22.05;4.20;;;14.60;99.90;;;;;;5054177;28;20396;-62
2022/05/13 05:40:33;;;;;;;16.65;3.90;;;14.60;99.90;;;;;;5053902;28;20440;-63
2022/05/13 05:43:08;;;;;;;16.38;3.13;;;14.70;99.90;;;;;;5053929;28;20055;-66
2022/05/13 05:45:36;;;;;;;12.30;3.22;;;14.70;99.90;;;;;;5053785;28;20380;-64
2022/05/13 05:48:01;;;;;;;16.35;3.20;;;14.80;99.90;;;;;;5054124;28;20111;-66
2022/05/13 05:50:27;;;;;;;20.35;3.20;;;14.80;99.90;;;;;;5053885;28;20441;-65
2022/05/13 05:52:52;;;;;;;11.43;3.58;;;14.90;99.90;;;;;;5053646;28;20115;-65
2022/05/13 05:58:07;;;;;;;14.88;3.50;;;15.00;99.90;;;;;;5053673;28;20032;-61
2022/05/13 06:00:34;;;;;;;12.57;2.92;;;15.10;99.90;;;;;;5053858;28;20064;-64
2022/05/13 06:03:00;;;;;;;13.07;3.88;;;15.20;99.90;;;;;;5053804;28;20503;-63
2022/05/13 06:05:26;;;;;;;17.35;3.70;;;15.30;99.90;;;;;;5051703;28;20025;-66
2022/05/13 06:07:55;;;;;;;13.85;2.50;;;15.40;99.90;;;;;;5053394;28;20032;-64
2022/05/13 06:10:21;;;;;;;12.30;2.60;;;15.40;99.90;;;;;;5053406;28;20453;-63
2022/05/13 06:12:47;;;;;;;9.77;2.47;;;15.60;99.90;;;;;;5053253;28;20471;-65
2022/05/13 06:15:13;;;;;;;14.38;2.38;;;15.80;99.90;;;;;;5053247;28;20025;-66
2022/05/13 06:17:44;;;;;;;14.00;2.60;;;16.00;99.90;;;;;;5053152;28;20051;-65
2022/05/13 06:20:10;;;;;;;10.65;2.65;;;16.20;99.90;;;;;;5053531;28;20017;-65
2022/05/13 06:22:36;;;;;;;12.52;2.60;;;16.20;99.90;;;;;;5053566;28;20029;-66
2022/05/13 06:25:02;;;;;;;14.32;2.58;;;16.20;99.90;;;;;;5053653;28;20036;-63
2022/05/13 06:27:28;;;;;;;13.68;3.17;;;16.10;99.90;;;;;;5052377;28;20024;-62
2022/05/13 06:29:53;;;;;;;10.93;2.47;;;16.20;99.90;;;;;;5053328;28;20366;-64
2022/05/13 06:32:19;;;;;;;5.63;1.67;;;16.10;99.90;;;;;;5053373;28;20453;-65
2022/05/13 06:34:44;;;;;;;12.35;2.28;;;16.10;99.90;;;;;;5053260;28;20037;-63
2022/05/13 06:37:10;;;;;;;14.80;3.30;;;16.00;99.90;;;;;;5053183;28;20032;-65
2022/05/13 06:39:35;;;;;;;10.25;3.03;;;15.90;99.90;;;;;;5053106;28;20052;-63
2022/05/13 06:42:01;;;;;;;10.73;3.40;;;15.90;99.90;;;;;;5053238;28;20035;-64
2022/05/13 06:44:26;;;;;;;10.88;3.22;;;16.10;99.90;;;;;;5053421;28;20024;-62
2022/05/13 06:46:52;;;;;;;11.65;2.35;;;16.80;99.90;;;;;;5053233;28;20112;-64
2022/05/13 06:49:17;;;;;;;9.48;2.42;;;17.70;99.90;;;;;;5053330;28;20059;-65
2022/05/13 06:51:43;;;;;;;17.58;5.30;;;18.50;99.90;;;;;;5052916;28;20035;-65
2022/05/13 06:54:10;;;;;;;8.38;2.28;;;19.00;99.90;;;;;;5052760;28;20023;-66
2022/05/13 06:56:38;;;;;;;8.40;2.05;;;19.10;99.90;;;;;;5052906;28;20040;-65
2022/05/13 06:59:05;;;;;;;14.65;3.35;;;19.00;99.70;;;;;;5053026;28;20017;-67
2022/05/13 07:01:30;;;;;;;12.68;3.08;;;19.10;99.90;;;;;;5051556;28;20366;-62
2022/05/13 07:03:56;;;;;;;15.02;3.22;;;19.50;99.50;;;;;;5052053;28;20023;-66
2022/05/13 07:06:22;;;;;;;11.75;2.00;;;19.90;98.80;;;;;;5052911;28;20029;-63
2022/05/13 07:08:50;;;;;;;12.15;2.90;;;20.00;98.50;;;;;;5052030;28;20078;-66
2022/05/13 07:11:17;;;;;;;9.38;2.63;;;20.40;98.00;;;;;;5052782;28;20024;-64
2022/05/13 07:13:43;;;;;;;8.93;2.50;;;20.60;97.50;;;;;;5052730;28;20017;-63
2022/05/13 07:16:08;;;;;;;11.52;2.03;;;20.90;97.10;;;;;;5051736;28;20473;-65
2022/05/13 07:18:36;;;;;;;11.20;2.20;;;20.80;97.00;;;;;;5050938;28;20028;-62
2022/05/13 07:21:02;;;;;;;9.40;2.42;;;20.60;97.00;;;;;;5052366;28;20029;-62
2022/05/13 07:23:29;;;;;;;9.48;1.83;;;20.30;97.10;;;;;;5052606;28;20031;-66
2022/05/13 07:25:55;;;;;;;9.60;2.50;;;20.00;97.60;;;;;;5052606;28;20032;-65
2022/05/13 07:28:21;;;;;;;8.23;2.17;;;19.60;98.10;;;;;;5050775;28;20021;-64
2022/05/13 07:30:47;;;;;;;9.88;2.05;;;19.30;98.40;;;;;;5051883;28;20491;-64
2022/05/13 07:33:13;;;;;;;11.80;2.08;;;19.10;98.70;;;;;;5052428;28;20098;-64
2022/05/13 07:35:39;;;;;;;15.88;2.47;;;19.00;99.00;;;;;;5051668;28;20449;-62
2022/05/13 07:38:08;;;;;;;12.55;1.90;;;18.80;99.30;;;;;;5051301;28;20031;-67
2022/05/13 07:43:18;;;;;;;11.15;2.63;;;18.30;99.90;;;;;;5051328;28;20116;-62
2022/05/13 07:45:44;;;;;;;10.85;2.53;;;18.40;99.90;;;;;;5050872;28;20092;-64
2022/05/13 07:48:09;;;;;;;13.68;2.63;;;18.50;99.90;;;;;;5050727;28;20101;-62
2022/05/13 07:50:35;;;;;;;8.63;2.63;;;18.70;99.90;;;;;;5051273;28;20021;-66
2022/05/13 07:53:01;;;;;;;9.90;1.85;;;18.80;99.80;;;;;;5050902;28;20499;-65
2022/05/13 07:55:27;;;;;;;12.23;2.50;;;18.80;99.40;;;;;;5050983;28;20123;-66
2022/05/13 07:57:53;;;;;;;8.23;1.90;;;18.80;99.50;;;;;;5051632;28;20017;-63
2022/05/13 08:00:24;;;;;;;11.98;2.30;;;18.90;99.40;;;;;;5052746;28;20449;-64
2022/05/13 08:02:50;;;;;;;15.77;2.75;;;18.80;99.60;;;;;;5052262;28;20040;-65
2022/05/13 08:05:16;;;;;;;12.07;2.55;;;18.90;99.50;;;;;;5052282;28;20453;-63
2022/05/13 08:07:41;;;;;;;12.75;2.88;;;19.20;99.20;;;;;;5052113;28;20427;-66
2022/05/13 08:10:07;;;;;;;14.50;2.80;;;19.50;98.90;;;;;;5052048;28;20029;-63
2022/05/13 08:12:34;;;;;;;9.35;1.95;;;19.80;98.30;;;;;;5051972;28;20067;-62
2022/05/13 08:14:59;;;;;;;12.15;2.67;;;19.80;98.10;;;;;;5052064;28;20025;-62
2022/05/13 08:17:25;;;;;;;9.82;2.38;;;19.80;98.10;;;;;;5051774;28;20051;-63
2022/05/13 08:19:50;;;;;;;11.60;2.60;;;19.90;98.10;;;;;;5053993;28;20021;-64
2022/05/13 08:22:16;;;;;;;11.48;2.15;;;19.90;97.80;;;;;;5055950;28;20086;-64
2022/05/13 08:24:41;;;;;;;13.35;2.42;;;19.80;97.80;;;;;;5055668;28;20423;-64
2022/05/13 08:27:07;;;;;;;15.57;2.80;;;19.80;97.70;;;;;;5056107;28;20347;-66
2022/05/13 08:29:33;;;;;;;10.27;1.77;;;19.60;97.90;;;;;;5055424;28;20049;-63
2022/05/13 08:31:59;;;;;;;11.60;2.03;;;19.50;98.10;;;;;;5055755;28;20469;-61
2022/05/13 08:34:24;;;;;;;11.43;2.15;;;19.50;97.90;;;;;;5054425;28;20478;-66
2022/05/13 08:36:50;;;;;;;11.07;2.63;;;19.80;97.70;;;;;;5055481;28;20032;-63
2022/05/13 08:39:16;;;;;;;11.52;1.98;;;20.20;97.30;;;;;;5055741;28;20397;-66
2022/05/13 08:42:07;;;;;;;12.15;2.15;;;20.70;96.90;;;;;;5055187;28;20074;-65
2022/05/13 08:44:33;;;;;;;9.15;2.10;;;21.50;96.00;;;;;;5054335;28;20027;-63
2022/05/13 08:47:16;;;;;;;9.98;2.00;;;22.40;94.90;;;;;;5054341;28;20412;-63
2022/05/13 08:49:55;;;;;;;8.85;2.25;;;22.70;94.10;;;;;;5054163;28;20052;-63
2022/05/13 08:55:23;;;;;;;9.23;2.03;;;23.10;93.20;;;;;;5054675;28;20040;-63
2022/05/13 08:57:49;;;;;;;13.05;2.92;;;22.80;93.60;;;;;;5054932;28;20090;-64
2022/05/13 09:00:42;;;;;;;15.75;3.05;;;22.60;93.60;;;;;;5055121;28;20057;-66
2022/05/13 09:03:34;;;;;;;13.10;2.80;;;22.50;93.80;;;;;;5055301;28;20112;-67
2022/05/13 09:06:14;;;;;;;10.50;2.15;;;23.00;93.20;;;;;;5055213;28;20100;-66
2022/05/13 09:08:40;;;;;;;13.82;3.13;;;23.90;92.30;;;;;;5055226;28;20029;-65
2022/05/13 09:11:30;;;;;;;12.07;2.58;;;24.30;91.50;;;;;;5055216;28;20346;-65
2022/05/13 09:14:12;;;;;;;10.07;2.33;;;24.60;91.00;;;;;;5055094;28;20021;-66
2022/05/13 09:17:03;;;;;;;11.00;2.03;;;24.90;90.50;;;;;;5054707;28;20044;-66
2022/05/13 09:19:35;;;;;;;9.63;1.90;;;25.20;90.10;;;;;;5055050;28;20021;-65
2022/05/13 09:22:03;;;;;;;9.57;2.65;;;25.80;88.20;;;;;;5054538;28;20029;-66
2022/05/13 09:24:29;;;;;;;9.15;2.30;;;26.10;86.60;;;;;;5054800;28;20021;-63
2022/05/13 09:26:54;;;;;;;10.25;2.45;;;26.20;86.10;;;;;;5053469;28;20411;-62
2022/05/13 09:29:20;;;;;;;15.35;2.47;;;26.40;85.30;;;;;;5053297;28;20056;-64
2022/05/13 09:32:04;;;;;;;11.40;2.72;;;26.40;84.90;;;;;;5054255;28;20071;-64
2022/05/13 09:34:39;;;;;;;12.02;2.42;;;26.40;84.00;;;;;;5054363;28;20051;-64
2022/05/13 09:37:24;;;;;;;8.40;2.22;;;26.20;84.20;;;;;;5054660;28;20028;-63
2022/05/13 09:40:31;;;;;;;7.97;2.03;;;26.30;83.80;;;;;;5054645;28;20025;-64
2022/05/13 09:42:59;;;;;;;8.27;1.65;;;26.60;82.10;;;;;;5054040;28;20093;-63
2022/05/13 09:45:30;;;;;;;10.80;2.08;;;26.20;82.30;;;;;;5054641;28;20028;-64
2022/05/13 09:48:19;;;;;;;18.25;2.92;;;26.10;82.90;;;;;;5054192;28;20403;-66
2022/05/13 09:50:53;;;;;;;9.43;2.10;;;26.10;83.10;;;;;;5054207;28;20048;-66
2022/05/13 09:53:22;;;;;;;9.90;1.90;;;26.20;81.10;;;;;;5053989;28;20433;-64
2022/05/13 09:55:53;;;;;;;11.32;2.30;;;26.40;80.60;;;;;;5054280;28;20103;-63
2022/05/13 09:58:33;;;;;;;9.38;2.38;;;26.60;81.30;;;;;;5054397;28;20029;-63
2022/05/13 10:01:10;;;;;;;11.45;1.92;;;26.50;81.10;;;;;;5054135;28;20036;-63
2022/05/13 10:03:37;;;;;;;13.30;2.30;;;26.70;80.50;;;;;;5054024;28;20017;-62
2022/05/13 10:06:05;;;;;;;12.82;2.50;;;26.40;80.40;;;;;;5054091;28;20116;-64
2022/05/13 10:08:31;;;;;;;10.20;1.80;;;26.20;81.30;;;;;;5054054;28;20023;-65
2022/05/13 10:14:03;;;;;;;12.30;2.15;;;26.10;80.90;;;;;;5053697;28;20043;-63
2022/05/13 10:16:34;;;;;;;10.73;1.85;;;26.00;80.80;;;;;;5053965;28;20037;-61
2022/05/13 10:19:05;;;;;;;10.95;2.38;;;25.70;80.60;;;;;;5052452;28;20389;-62
2022/05/13 10:21:49;;;;;;;10.77;2.10;;;25.50;81.30;;;;;;5053757;28;20082;-62
2022/05/13 10:25:20;;;;;;;15.23;3.15;;;25.50;81.40;;;;;;5053659;28;20027;-62
2022/05/13 10:27:50;;;;;;;13.23;3.30;;;25.30;81.60;;;;;;5034505;28;20162;-63
2022/05/13 10:30:32;;;;;;;9.10;2.10;;;25.60;81.40;;;;;;5053326;28;20048;-63
2022/05/13 10:33:10;;;;;;;11.30;2.45;;;25.20;82.00;;;;;;5053082;28;20112;-64
2022/05/13 10:36:15;;;;;;;12.68;4.07;;;25.10;82.20;;;;;;5053256;28;20040;-65
2022/05/13 10:39:01;;;;;;;12.00;2.65;;;24.90;82.90;;;;;;5053306;28;20025;-66
2022/05/13 10:41:34;;;;;;;13.48;3.03;;;24.80;83.10;;;;;;5052827;28;20136;-64
2022/05/13 10:44:17;;;;;;;15.32;3.83;;;25.10;83.00;;;;;;5052824;28;20035;-66
2022/05/13 10:46:50;;;;;;;14.82;4.15;;;25.10;82.30;;;;;;5051980;28;20029;-65
2022/05/13 10:49:16;;;;;;;14.45;4.25;;;25.00;83.10;;;;;;5053196;28;20029;-63
2022/05/13 10:51:56;;;;;;;15.65;5.57;;;25.30;82.40;;;;;;5053006;28;20021;-64
2022/05/13 10:54:28;;;;;;;16.27;3.97;;;25.40;81.50;;;;;;5053355;28;20035;-62
2022/05/13 10:57:03;;;;;;;15.13;3.83;;;25.10;82.90;;;;;;5050899;28;20033;-64
2022/05/13 11:00:12;;;;;;;12.57;3.03;;;25.50;82.00;;;;;;5051560;28;20025;-63
2022/05/13 11:02:51;;;;;;;10.90;3.42;;;25.10;82.80;;;;;;5010702;28;20149;-63
2022/05/13 11:05:55;;;;;;;16.40;4.07;;;24.30;84.50;;;;;;5044512;28;20355;-66
2022/05/13 11:08:31;;;;;;;11.85;3.28;;;24.30;84.60;;;;;;5052910;28;20020;-64
2022/05/13 11:11:17;;;;;;;11.07;3.33;;;24.70;84.40;;;;;;5052910;28;20024;-65
2022/05/13 11:13:55;;;;;;;16.00;4.38;;;25.00;84.00;;;;;;5052838;28;20021;-64
2022/05/13 11:16:42;;;;;;;15.63;4.03;;;25.50;83.50;;;;;;5052612;28;20044;-63
2022/05/13 11:19:28;;;;;;;13.77;3.97;;;26.00;82.90;;;;;;5052783;28;20024;-62
2022/05/13 11:22:24;;;;;;;11.35;3.45;;;26.20;81.90;;;;;;5052005;28;20044;-67
2022/05/13 11:27:43;;;;;;;12.82;3.15;;;26.80;80.70;;;;;;5052460;28;20071;-65
2022/05/13 11:30:16;;;;;;;12.50;3.60;;;26.60;80.80;;;;;;5052622;28;20049;-65
2022/05/13 11:32:46;;;;;;;12.95;3.25;;;26.20;80.80;;;;;;5052376;28;20036;-62
2022/05/13 11:35:38;;;;;;;10.57;3.08;;;25.60;82.20;;;;;;5051973;28;20025;-66
2022/05/13 11:38:22;;;;;;;10.85;3.10;;;24.90;82.50;;;;;;5052528;28;20572;-62
2022/05/13 11:40:59;;;;;;;16.83;4.47;;;24.30;84.10;;;;;;5052818;28;20033;-64
2022/05/13 11:44:03;;;;;;;12.45;3.35;;;23.70;85.20;;;;;;5052496;28;20033;-64
2022/05/13 11:46:33;;;;;;;12.48;3.75;;;23.10;86.80;;;;;;4993934;28;20061;-65
2022/05/13 11:49:22;;;;;;;13.20;3.90;;;22.90;87.60;;;;;;5044519;28;20029;-63
2022/05/13 11:51:47;;;;;;;12.32;3.33;;;22.60;88.70;;;;;;5052626;28;20515;-63
2022/05/13 11:54:18;;;;;;;17.13;3.67;;;22.40;89.40;;;;;;5052553;28;20029;-63
2022/05/13 11:56:46;;;;;;;14.98;3.20;;;22.50;89.10;;;;;;5056354;28;20086;-65
2022/05/13 11:59:27;;;;;;;14.73;3.10;;;22.90;88.30;;;;;;5056396;28;20021;-63
2022/05/13 12:02:13;;;;;;;13.45;3.20;;;23.00;88.80;;;;;;5056046;28;20357;-63
2022/05/13 12:05:08;;;;;;;11.65;2.78;;;22.90;88.40;;;;;;5055230;28;20132;-62
2022/05/13 12:07:48;;;;;;;13.23;3.45;;;22.80;88.80;;;;;;5054405;28;20021;-65
2022/05/13 12:10:13;;;;;;;10.13;2.35;;;22.70;88.50;;;;;;5036132;28;20450;-65
2022/05/13 12:13:05;;;;;;;12.95;3.13;;;22.90;87.80;;;;;;5035745;28;20025;-62
2022/05/13 12:15:44;;;;;;;12.30;3.50;;;22.40;88.70;;;;;;5036250;28;20073;-66
2022/05/13 12:18:31;;;;;;;13.10;3.10;;;21.80;89.70;;;;;;5043412;28;20050;-62
2022/05/13 12:21:11;;;;;;;11.68;2.65;;;21.60;89.80;;;;;;5053409;28;20016;-63
2022/05/13 12:24:04;;;;;;;12.43;3.13;;;21.60;90.30;;;;;;5065573;28;20021;-65
2022/05/13 12:26:51;;;;;;;12.10;3.22;;;21.90;90.10;;;;;;5072435;28;20054;-64
2022/05/13 12:29:39;;;;;;;9.23;3.08;;;22.40;89.90;;;;;;5035724;28;20115;-65
2022/05/13 12:32:05;;;;;;;11.23;2.55;;;22.70;89.60;;;;;;5035734;28;20079;-67
2022/05/13 12:37:46;;;;;;;15.95;2.75;;;23.40;88.10;;;;;;5069337;28;20032;-63
2022/05/13 12:40:16;;;;;;;11.48;3.20;;;23.20;88.50;;;;;;5075154;28;20029;-63
2022/05/13 12:42:51;;;;;;;11.77;2.85;;;23.30;88.60;;;;;;5074528;28;20021;-62
2022/05/13 12:45:41;;;;;;;10.75;2.47;;;23.60;87.60;;;;;;5075302;28;20028;-62
2022/05/13 12:48:07;;;;;;;8.15;2.47;;;23.80;87.30;;;;;;5075404;28;20111;-63
2022/05/13 12:51:02;;;;;;;11.82;2.42;;;24.00;86.90;;;;;;5075029;28;20427;-63
2022/05/13 12:53:27;;;;;;;9.25;2.20;;;24.00;86.40;;;;;;5064637;28;20044;-62
2022/05/13 12:56:15;;;;;;;11.23;2.78;;;24.00;86.60;;;;;;5053817;28;20480;-63
2022/05/13 12:58:47;;;;;;;11.98;2.92;;;23.70;86.60;;;;;;5055221;28;20429;-63
2022/05/13 13:01:15;;;;;;;13.15;3.03;;;23.00;87.50;;;;;;5055273;28;20044;-62
2022/05/13 13:03:44;;;;;;;10.45;2.35;;;22.30;89.20;;;;;;5055142;28;20021;-62
2022/05/13 13:06:16;;;;;;;8.68;2.28;;;21.80;90.00;;;;;;5054385;28;20029;-62
2022/05/13 13:08:45;;;;;;;15.80;2.70;;;21.80;90.50;;;;;;5055407;28;20108;-62
2022/05/13 13:11:28;;;;;;;12.48;2.63;;;21.60;90.80;;;;;;5054832;28;20036;-62
2022/05/13 13:14:16;;;;;;;15.63;2.80;;;21.60;90.90;;;;;;5055123;28;20021;-62
2022/05/13 13:17:06;;;;;;;12.27;2.50;;;21.60;91.10;;;;;;5054805;28;20032;-62
2022/05/13 13:19:32;;;;;;;10.98;2.67;;;21.60;90.70;;;;;;5055064;28;20033;-62
2022/05/13 13:22:04;;;;;;;10.30;3.10;;;21.50;91.30;;;;;;5055237;28;20037;-62
2022/05/13 13:24:31;;;;;;;;;;;21.40;91.30;;;;;;5055314;28;20020;-63